Time;durP1;ratioP1;P1;durP2;ratioP2;P2;SDS_P1;SDS_P2;PMS_P1;PMS_P2;Temp;Humidity;BMP_temperature;BMP_pressure;BME280_temperature;BME280_humidity;BME280_pressure;Samples;Min_cycle;Max_cycle;Signal;HPM_P1;HPM_P2
2023/07/31 00:02:05;;;;;;;7.57;3.78;;;15.40;1.00;;;;;;5044234;28;20240;-96
2023/07/31 00:04:32;;;;;;;5.85;2.38;;;15.30;29.30;;;;;;5012086;28;20204;-95
2023/07/31 00:06:59;;;;;;;3.35;2.13;;;15.30;57.50;;;;;;5020162;28;20208;-95
2023/07/31 00:09:26;;;;;;;5.80;2.38;;;15.30;99.90;;;;;;5018152;28;20228;-94
2023/07/31 00:11:53;;;;;;;4.40;2.42;;;15.30;99.90;;;;;;5020748;28;20204;-94
2023/07/31 00:14:20;;;;;;;7.82;3.10;;;15.30;99.90;;;;;;5019075;28;20204;-93
2023/07/31 00:16:48;;;;;;;5.45;2.55;;;15.20;99.90;;;;;;5029650;28;20573;-94
2023/07/31 00:19:15;;;;;;;5.00;2.60;;;15.20;99.90;;;;;;5030524;28;20201;-94
2023/07/31 00:21:42;;;;;;;4.40;2.58;;;15.10;99.90;;;;;;5038952;28;20195;-95
2023/07/31 00:24:09;;;;;;;8.13;2.50;;;15.10;99.90;;;;;;5035418;28;20238;-95
2023/07/31 00:26:36;;;;;;;5.57;2.50;;;15.10;1.00;;;;;;5032032;28;20258;-95
2023/07/31 00:29:03;;;;;;;5.50;2.70;;;15.10;1.00;;;;;;5032274;28;20256;-95
2023/07/31 00:31:32;;;;;;;5.67;2.47;;;15.00;1.00;;;;;;5039800;28;20283;-95
2023/07/31 00:34:00;;;;;;;4.25;2.60;;;15.00;1.00;;;;;;5030458;28;20200;-95
2023/07/31 00:36:30;;;;;;;4.60;2.50;;;15.00;1.00;;;;;;5033372;28;20200;-95
2023/07/31 00:38:57;;;;;;;5.07;2.40;;;15.00;1.00;;;;;;5032294;28;20226;-95
2023/07/31 00:49:12;;;;;;;6.82;2.75;;;14.90;95.10;;;;;;5565240;22;20458;-94
2023/07/31 00:51:39;;;;;;;5.33;2.63;;;14.90;99.90;;;;;;4997354;28;20186;-95
2023/07/31 00:54:10;;;;;;;6.03;3.13;;;14.90;99.90;;;;;;5015471;28;20197;-95
2023/07/31 00:56:40;;;;;;;6.77;2.83;;;14.80;99.90;;;;;;5019457;28;20182;-95
2023/07/31 00:59:07;;;;;;;10.10;3.30;;;14.80;99.90;;;;;;5013418;28;20250;-94
2023/07/31 01:01:34;;;;;;;7.20;2.73;;;14.80;99.90;;;;;;5015451;28;20180;-95
2023/07/31 01:04:01;;;;;;;7.53;2.93;;;14.70;99.90;;;;;;5017112;28;20196;-94
2023/07/31 01:06:39;;;;;;;6.07;2.70;;;14.70;99.90;;;;;;5022015;28;20181;-95
2023/07/31 01:09:16;;;;;;;5.10;2.80;;;14.70;1.00;;;;;;5022120;28;20218;-95
2023/07/31 01:45:21;;;;;;;7.20;3.50;;;14.40;1.00;;;;;;4995786;28;20214;-95
2023/07/31 01:47:49;;;;;;;4.97;3.20;;;14.50;1.00;;;;;;4987999;28;20219;-96
2023/07/31 01:50:16;;;;;;;5.60;3.40;;;14.50;1.00;;;;;;4983970;28;20309;-94
2023/07/31 01:52:43;;;;;;;7.50;3.23;;;14.60;1.00;;;;;;4994800;28;20664;-96
2023/07/31 01:55:11;;;;;;;7.27;3.10;;;14.70;1.00;;;;;;4986844;28;20291;-96
2023/07/31 01:57:40;;;;;;;5.67;3.10;;;14.80;1.00;;;;;;4991351;28;20238;-94
2023/07/31 02:00:08;;;;;;;6.27;3.53;;;15.00;99.90;;;;;;5011589;28;20189;-95
2023/07/31 02:15:33;;;;;;;5.10;3.05;;;15.50;1.00;;;;;;5875090;22;20431;-96
2023/07/31 02:18:01;;;;;;;5.68;3.15;;;15.50;1.00;;;;;;5016132;28;20225;-95
2023/07/31 02:20:27;;;;;;;4.22;3.05;;;15.50;1.00;;;;;;5007724;28;20226;-96
2023/07/31 02:22:57;;;;;;;6.18;2.58;;;15.50;1.00;;;;;;5010105;28;20300;-96
2023/07/31 02:25:24;;;;;;;4.80;3.20;;;15.50;1.00;;;;;;5014493;28;20208;-95
2023/07/31 02:27:53;;;;;;;5.07;3.30;;;15.50;1.00;;;;;;5024328;28;20192;-95
2023/07/31 02:30:20;;;;;;;6.03;3.10;;;15.50;1.00;;;;;;5021567;28;20202;-95
2023/07/31 02:32:49;;;;;;;10.00;3.53;;;15.40;1.00;;;;;;5017129;28;20232;-95
2023/07/31 02:35:18;;;;;;;4.40;3.20;;;15.30;1.00;;;;;;5029371;28;20196;-94
2023/07/31 02:37:47;;;;;;;5.47;3.00;;;15.30;1.00;;;;;;5014702;28;20202;-95
2023/07/31 02:40:14;;;;;;;7.60;3.10;;;15.20;1.00;;;;;;5008261;28;20215;-95
2023/07/31 02:42:41;;;;;;;5.03;2.70;;;15.20;1.00;;;;;;5008357;28;20648;-95
2023/07/31 02:45:09;;;;;;;7.37;3.30;;;15.10;1.00;;;;;;5003255;28;20282;-95
2023/07/31 02:47:36;;;;;;;4.47;2.83;;;15.10;1.00;;;;;;4999960;28;20242;-95
2023/07/31 02:50:05;;;;;;;6.93;3.17;;;15.00;1.00;;;;;;5000542;28;20229;-95
2023/07/31 02:52:32;;;;;;;5.50;3.20;;;15.00;78.30;;;;;;5015542;28;20209;-96
2023/07/31 02:54:59;;;;;;;6.10;3.05;;;14.90;99.90;;;;;;4993849;28;20208;-95
2023/07/31 02:57:26;;;;;;;4.90;3.07;;;14.90;99.90;;;;;;4995561;28;20223;-96
2023/07/31 02:59:53;;;;;;;4.90;3.23;;;14.80;99.90;;;;;;5011183;28;20254;-95
2023/07/31 03:02:23;;;;;;;8.27;3.07;;;14.80;99.90;;;;;;5013299;28;20200;-95
2023/07/31 03:04:50;;;;;;;7.97;2.93;;;14.80;99.90;;;;;;5010452;28;20247;-96
2023/07/31 03:07:19;;;;;;;4.40;3.13;;;14.80;99.90;;;;;;5020674;28;20200;-94
2023/07/31 03:09:46;;;;;;;5.60;3.37;;;14.90;99.90;;;;;;5009485;28;20227;-96
2023/07/31 03:26:01;;;;;;;8.23;3.28;;;15.40;1.00;;;;;;5758447;23;20240;-96
2023/07/31 03:41:28;;;;;;;9.43;3.90;;;15.60;1.00;;;;;;5487153;22;20230;-94
2023/07/31 03:43:55;;;;;;;8.80;4.05;;;15.70;1.00;;;;;;5040145;28;20196;-95
2023/07/31 03:46:26;;;;;;;7.85;4.47;;;15.70;1.00;;;;;;5039123;28;20207;-95
2023/07/31 03:48:53;;;;;;;8.25;4.60;;;15.80;1.00;;;;;;5037910;28;20264;-96
2023/07/31 03:51:20;;;;;;;5.60;4.22;;;15.80;1.00;;;;;;5037973;28;20208;-94
2023/07/31 04:09:23;;;;;;;5.45;4.47;;;16.00;99.90;;;;;;5504702;22;20234;-95
2023/07/31 04:11:50;;;;;;;6.57;4.40;;;16.00;99.90;;;;;;5474207;22;20225;-96
2023/07/31 04:14:17;;;;;;;12.05;4.90;;;16.10;99.90;;;;;;5036331;28;20209;-95
2023/07/31 04:19:20;;;;;;;9.77;4.88;;;16.10;99.90;;;;;;5035363;23;20229;-96
2023/07/31 04:21:47;;;;;;;9.40;4.43;;;16.10;99.90;;;;;;5031376;28;20570;-96
2023/07/31 04:24:15;;;;;;;9.35;4.30;;;16.20;1.00;;;;;;5022799;28;20284;-95
2023/07/31 04:26:43;;;;;;;7.82;4.40;;;16.20;1.00;;;;;;5029763;28;20251;-96
2023/07/31 04:29:10;;;;;;;6.43;4.35;;;16.30;1.00;;;;;;5024177;28;20267;-96
2023/07/31 04:31:37;;;;;;;6.45;4.35;;;16.30;99.90;;;;;;5018902;28;20221;-96
2023/07/31 04:34:04;;;;;;;7.00;4.25;;;16.30;99.90;;;;;;5009521;28;20209;-95
2023/07/31 04:36:31;;;;;;;5.75;4.20;;;16.40;99.90;;;;;;5024268;28;20261;-94
2023/07/31 04:38:58;;;;;;;7.28;4.13;;;16.50;99.90;;;;;;5030960;28;20191;-96
2023/07/31 04:41:25;;;;;;;7.75;4.30;;;16.50;99.90;;;;;;5018566;28;20244;-95
2023/07/31 04:43:53;;;;;;;9.90;4.68;;;16.60;99.90;;;;;;5019426;28;20198;-95
2023/07/31 04:46:20;;;;;;;7.43;4.22;;;16.70;36.80;;;;;;5020402;28;20213;-95
2023/07/31 04:48:47;;;;;;;11.85;4.07;;;16.80;1.00;;;;;;5019733;28;20226;-94
2023/07/31 04:51:14;;;;;;;5.10;3.90;;;16.90;11.90;;;;;;5022342;28;20213;-96
2023/07/31 04:53:41;;;;;;;8.55;3.90;;;17.00;1.00;;;;;;5018400;28;20201;-96
2023/07/31 04:56:08;;;;;;;7.00;3.80;;;17.10;1.00;;;;;;5018569;28;20281;-95
2023/07/31 04:58:35;;;;;;;8.50;3.90;;;17.30;1.00;;;;;;5017074;28;20226;-95
2023/07/31 05:01:03;;;;;;;4.80;3.63;;;17.40;99.90;;;;;;5016645;28;20217;-94
2023/07/31 05:03:30;;;;;;;6.85;3.88;;;17.50;99.90;;;;;;5016072;28;20198;-94
2023/07/31 05:05:57;;;;;;;6.43;4.03;;;17.60;13.60;;;;;;5017285;28;20718;-95
2023/07/31 05:08:24;;;;;;;9.32;4.43;;;17.60;3.70;;;;;;5021461;28;20212;-95
2023/07/31 05:10:53;;;;;;;5.22;4.63;;;17.60;1.00;;;;;;5028461;28;20229;-95
2023/07/31 05:13:20;;;;;;;9.75;5.00;;;17.60;1.00;;;;;;5011053;28;20228;-95
2023/07/31 05:15:49;;;;;;;9.07;5.18;;;17.60;1.00;;;;;;5023992;28;20567;-94
2023/07/31 05:18:17;;;;;;;6.07;4.28;;;17.50;1.00;;;;;;5026688;28;20230;-95
2023/07/31 05:20:45;;;;;;;8.80;4.63;;;17.60;1.00;;;;;;5025431;28;20195;-96
2023/07/31 05:23:12;;;;;;;5.85;4.13;;;17.50;1.00;;;;;;5028863;28;20218;-95
2023/07/31 05:25:39;;;;;;;6.68;4.20;;;17.60;1.00;;;;;;5029805;28;20237;-95
2023/07/31 05:28:06;;;;;;;7.45;4.13;;;17.60;1.00;;;;;;5029883;28;20205;-95
2023/07/31 05:30:33;;;;;;;9.05;4.10;;;17.70;1.00;;;;;;5018292;28;20241;-96
2023/07/31 05:33:00;;;;;;;6.10;4.43;;;17.90;1.00;;;;;;5019458;28;20192;-95
2023/07/31 05:35:28;;;;;;;7.57;4.45;;;18.10;1.00;;;;;;5028246;28;20205;-96
2023/07/31 05:38:00;;;;;;;5.70;3.92;;;18.10;1.00;;;;;;5029250;28;20198;-95
2023/07/31 05:40:27;;;;;;;5.57;3.83;;;18.30;1.00;;;;;;5028304;28;20265;-95
2023/07/31 05:42:54;;;;;;;6.15;4.20;;;18.40;99.90;;;;;;5013405;28;20190;-95
2023/07/31 05:45:22;;;;;;;7.95;4.90;;;18.60;99.90;;;;;;5023442;28;20198;-95
2023/07/31 05:47:51;;;;;;;9.05;5.28;;;18.70;1.00;;;;;;5027583;28;20716;-95
2023/07/31 05:50:18;;;;;;;7.85;5.03;;;18.90;1.00;;;;;;5024328;28;20221;-95
2023/07/31 05:52:49;;;;;;;9.27;6.18;;;19.00;1.00;;;;;;5022643;28;20234;-95
2023/07/31 05:55:16;;;;;;;8.05;3.38;;;19.10;1.00;;;;;;5029178;28;20182;-95
2023/07/31 05:57:45;;;;;;;5.00;3.35;;;19.20;99.90;;;;;;5028337;28;20194;-95
2023/07/31 06:00:13;;;;;;;5.65;3.05;;;19.30;99.90;;;;;;5020377;28;20258;-96
2023/07/31 06:02:40;;;;;;;4.82;2.85;;;19.40;69.40;;;;;;5012711;28;20206;-96
2023/07/31 06:05:08;;;;;;;4.22;3.10;;;19.50;1.00;;;;;;5014698;28;20215;-96
2023/07/31 06:07:41;;;;;;;6.60;2.65;;;19.50;1.00;;;;;;5017349;28;20217;-95
2023/07/31 06:10:10;;;;;;;5.22;2.80;;;19.60;1.00;;;;;;5025929;28;20214;-95
2023/07/31 06:12:37;;;;;;;5.07;2.80;;;19.60;1.00;;;;;;5030752;28;20233;-94
2023/07/31 06:15:05;;;;;;;4.13;2.58;;;19.60;1.00;;;;;;5030973;28;20252;-95
2023/07/31 06:17:33;;;;;;;4.07;2.70;;;19.70;1.00;;;;;;5032268;28;20226;-96
2023/07/31 06:20:02;;;;;;;8.18;2.63;;;19.80;99.90;;;;;;5032022;28;20198;-95
2023/07/31 06:22:32;;;;;;;5.55;2.80;;;19.90;99.90;;;;;;5027144;28;20237;-95
2023/07/31 06:24:59;;;;;;;4.15;3.13;;;20.00;99.90;;;;;;5025480;28;20240;-95
2023/07/31 06:27:28;;;;;;;6.60;4.20;;;20.10;99.90;;;;;;5030244;28;20199;-95
2023/07/31 06:29:55;;;;;;;5.18;3.42;;;20.20;99.90;;;;;;5021770;28;20746;-96
2023/07/31 06:32:22;;;;;;;6.22;3.50;;;20.30;99.90;;;;;;5008403;28;20206;-96
2023/07/31 06:34:49;;;;;;;5.22;3.22;;;20.50;99.90;;;;;;5028120;28;20206;-95
2023/07/31 06:37:16;;;;;;;5.47;3.50;;;20.60;1.00;;;;;;5008237;28;20206;-96
2023/07/31 06:39:43;;;;;;;5.72;3.97;;;20.50;1.00;;;;;;5018260;28;20203;-96
2023/07/31 06:42:10;;;;;;;5.95;3.92;;;20.50;1.00;;;;;;5022334;28;20258;-94
2023/07/31 06:44:41;;;;;;;6.18;4.03;;;20.60;22.10;;;;;;5023123;28;20194;-95
2023/07/31 06:47:08;;;;;;;6.63;4.15;;;20.70;99.90;;;;;;5020949;28;20281;-96
2023/07/31 06:49:35;;;;;;;5.65;3.72;;;20.80;1.00;;;;;;5021548;28;20298;-95
2023/07/31 06:52:02;;;;;;;6.55;4.20;;;20.80;1.00;;;;;;5018445;28;20198;-96
2023/07/31 06:54:30;;;;;;;5.22;3.63;;;20.70;1.00;;;;;;5017291;28;20202;-94
2023/07/31 06:56:57;;;;;;;8.88;3.80;;;20.70;1.00;;;;;;5020656;28;20208;-95
2023/07/31 06:59:23;;;;;;;6.60;4.00;;;20.70;1.00;;;;;;5020070;28;20237;-96
2023/07/31 07:01:52;;;;;;;12.43;4.60;;;20.70;48.80;;;;;;5020420;28;20647;-96
2023/07/31 07:04:19;;;;;;;6.15;3.88;;;20.70;1.00;;;;;;5022046;28;20252;-95
2023/07/31 07:06:45;;;;;;;6.28;3.90;;;20.60;1.00;;;;;;5021379;28;20221;-95
2023/07/31 07:09:12;;;;;;;7.68;4.10;;;20.40;95.20;;;;;;5015179;28;20282;-96
2023/07/31 07:11:39;;;;;;;5.20;3.97;;;20.40;99.90;;;;;;5020166;28;20309;-96
2023/07/31 07:14:06;;;;;;;7.80;4.00;;;20.30;99.90;;;;;;5020015;28;20208;-95
2023/07/31 07:16:33;;;;;;;6.95;4.63;;;20.30;99.90;;;;;;5019493;28;20198;-95
2023/07/31 07:19:01;;;;;;;5.88;4.28;;;20.30;1.00;;;;;;5004973;28;20310;-96
2023/07/31 07:21:28;;;;;;;5.40;4.20;;;20.30;1.00;;;;;;5011999;28;20210;-96
2023/07/31 07:23:55;;;;;;;6.82;4.13;;;20.30;1.00;;;;;;5018532;28;20289;-95
2023/07/31 07:26:22;;;;;;;5.45;3.92;;;20.30;1.00;;;;;;5019050;28;20206;-95
2023/07/31 07:28:49;;;;;;;5.75;4.00;;;20.20;1.00;;;;;;5018756;28;20194;-96
2023/07/31 07:31:16;;;;;;;6.97;4.38;;;20.10;1.00;;;;;;5018523;28;20214;-95
2023/07/31 07:33:43;;;;;;;6.00;3.60;;;20.00;1.00;;;;;;5017539;28;20222;-96
2023/07/31 07:36:12;;;;;;;6.10;4.07;;;20.00;1.00;;;;;;5017923;28;20627;-96
2023/07/31 07:38:39;;;;;;;5.75;3.80;;;20.00;76.20;;;;;;5018002;28;20207;-95
2023/07/31 07:41:06;;;;;;;7.65;3.67;;;20.00;50.60;;;;;;5018234;28;20198;-95
2023/07/31 07:43:33;;;;;;;4.95;3.70;;;20.00;1.10;;;;;;5015671;28;20281;-96
2023/07/31 07:45:59;;;;;;;8.70;3.50;;;19.90;99.90;;;;;;5015231;28;20204;-95
2023/07/31 07:48:26;;;;;;;5.90;3.60;;;19.90;99.90;;;;;;5018318;28;20202;-96
2023/07/31 07:50:53;;;;;;;5.45;3.45;;;19.90;99.90;;;;;;5018282;28;20258;-96
2023/07/31 07:53:21;;;;;;;8.23;3.40;;;20.00;99.90;;;;;;5017772;28;20221;-96
2023/07/31 07:55:48;;;;;;;6.28;3.33;;;20.10;99.90;;;;;;5019112;28;20301;-96
2023/07/31 07:58:15;;;;;;;5.53;3.20;;;20.20;99.90;;;;;;5019372;28;20291;-96
2023/07/31 08:00:42;;;;;;;5.15;3.40;;;20.50;99.90;;;;;;5000190;28;20214;-96
2023/07/31 08:03:09;;;;;;;5.03;3.08;;;20.80;1.00;;;;;;5000916;28;20203;-95
2023/07/31 08:05:36;;;;;;;5.78;2.90;;;21.20;1.00;;;;;;4999764;28;20227;-95
2023/07/31 08:08:03;;;;;;;4.70;2.80;;;21.50;99.90;;;;;;5001105;28;20209;-96
2023/07/31 08:10:31;;;;;;;5.13;3.00;;;21.80;96.10;;;;;;5000382;28;20215;-95
2023/07/31 08:12:58;;;;;;;4.68;2.60;;;22.00;1.00;;;;;;5000490;28;20195;-96
2023/07/31 08:15:25;;;;;;;4.57;2.92;;;22.00;1.00;;;;;;5018553;28;20210;-95
2023/07/31 08:17:52;;;;;;;6.82;3.42;;;22.00;1.00;;;;;;5021513;28;20244;-96
2023/07/31 08:20:19;;;;;;;3.90;3.13;;;22.10;99.90;;;;;;5020647;28;20711;-96
2023/07/31 08:22:46;;;;;;;5.88;3.95;;;22.30;1.00;;;;;;5021352;28;20237;-95
2023/07/31 08:25:13;;;;;;;6.80;3.38;;;22.60;99.90;;;;;;5002793;28;20202;-96
2023/07/31 08:27:44;;;;;;;5.47;3.53;;;22.60;1.00;;;;;;5011272;28;20186;-95
2023/07/31 08:30:12;;;;;;;4.53;3.17;;;22.40;10.50;;;;;;5020005;28;20210;-96
2023/07/31 08:32:39;;;;;;;5.25;3.40;;;22.30;3.80;;;;;;5021490;28;20214;-96
2023/07/31 08:35:06;;;;;;;6.28;3.65;;;22.10;99.90;;;;;;5021505;28;20226;-96
2023/07/31 08:37:33;;;;;;;3.88;3.10;;;22.10;99.90;;;;;;5020420;28;20201;-95
2023/07/31 08:40:00;;;;;;;5.85;3.00;;;22.30;99.90;;;;;;5021138;28;20618;-96
2023/07/31 08:42:27;;;;;;;6.97;3.08;;;22.50;95.10;;;;;;5016584;28;20244;-96
2023/07/31 08:44:57;;;;;;;6.57;3.05;;;22.60;1.00;;;;;;5018058;28;20277;-96
2023/07/31 08:47:25;;;;;;;4.05;2.90;;;22.60;1.00;;;;;;5011594;28;20285;-96
2023/07/31 08:49:53;;;;;;;4.47;3.38;;;22.60;1.00;;;;;;5019773;28;20222;-96
2023/07/31 08:52:20;;;;;;;4.93;3.08;;;22.50;1.00;;;;;;5019834;28;20277;-96
2023/07/31 08:54:47;;;;;;;5.22;3.20;;;22.60;1.00;;;;;;5015291;28;20222;-95
2023/07/31 08:57:15;;;;;;;4.85;3.00;;;22.70;1.00;;;;;;5021201;28;20205;-95
2023/07/31 08:59:43;;;;;;;5.18;2.58;;;22.80;1.00;;;;;;5017080;28;20691;-96
2023/07/31 09:02:14;;;;;;;4.50;3.10;;;22.90;1.00;;;;;;5017131;28;20198;-95
2023/07/31 09:04:41;;;;;;;3.90;2.95;;;22.80;1.00;;;;;;5017304;28;20253;-96
2023/07/31 09:07:09;;;;;;;4.32;2.75;;;22.60;1.00;;;;;;5002344;28;20191;-95
2023/07/31 09:09:37;;;;;;;3.58;2.78;;;22.20;1.00;;;;;;5011830;28;20224;-95
2023/07/31 09:12:04;;;;;;;3.55;2.88;;;22.00;1.00;;;;;;5018054;28;20305;-95
2023/07/31 09:14:31;;;;;;;4.85;2.67;;;22.00;1.00;;;;;;5017005;28;20204;-95
2023/07/31 09:16:59;;;;;;;4.45;2.83;;;22.00;1.00;;;;;;5014863;28;20276;-95
2023/07/31 09:19:30;;;;;;;9.85;3.08;;;22.10;1.00;;;;;;4999463;28;20195;-95
2023/07/31 09:21:57;;;;;;;5.30;2.92;;;22.20;1.00;;;;;;4996837;28;20230;-95
2023/07/31 09:24:28;;;;;;;7.38;3.17;;;22.30;1.00;;;;;;5013139;28;20673;-96
2023/07/31 09:26:56;;;;;;;9.48;3.30;;;22.20;1.00;;;;;;5016556;28;20244;-96
2023/07/31 09:29:24;;;;;;;4.82;2.70;;;22.10;1.00;;;;;;5013032;28;20193;-95
2023/07/31 09:31:51;;;;;;;3.25;2.70;;;22.20;1.00;;;;;;5015941;28;20304;-95
2023/07/31 09:34:18;;;;;;;4.93;2.90;;;22.30;1.00;;;;;;5017153;28;20293;-95
2023/07/31 09:36:48;;;;;;;5.28;3.13;;;22.20;1.00;;;;;;5011004;28;20229;-94
2023/07/31 09:39:16;;;;;;;5.65;2.72;;;22.10;1.00;;;;;;5015815;28;20285;-94
2023/07/31 09:41:44;;;;;;;5.13;3.25;;;22.00;1.00;;;;;;5005698;28;20257;-95
2023/07/31 09:44:12;;;;;;;5.57;2.63;;;21.90;99.90;;;;;;4996680;28;20723;-95
2023/07/31 09:46:39;;;;;;;4.15;2.80;;;21.90;99.90;;;;;;5015230;28;20276;-95
2023/07/31 09:49:08;;;;;;;6.40;2.78;;;21.80;34.80;;;;;;5016610;28;20198;-94
2023/07/31 09:51:38;;;;;;;5.57;2.75;;;21.60;17.40;;;;;;5015850;28;20214;-95
2023/07/31 09:54:11;;;;;;;4.38;2.47;;;21.40;99.90;;;;;;5011211;28;20249;-94
2023/07/31 09:56:42;;;;;;;4.05;2.70;;;21.20;99.90;;;;;;5015876;28;20285;-94
2023/07/31 09:59:11;;;;;;;5.90;2.92;;;21.30;1.00;;;;;;5016240;28;20225;-94
2023/07/31 10:01:39;;;;;;;4.78;2.75;;;21.60;1.00;;;;;;5016271;28;20631;-95
2023/07/31 10:04:08;;;;;;;7.43;5.30;;;22.00;99.90;;;;;;5016345;28;20285;-95
2023/07/31 10:06:36;;;;;;;5.00;4.50;;;22.40;57.00;;;;;;5015691;28;20631;-95
2023/07/31 10:09:04;;;;;;;4.97;3.20;;;22.70;1.00;;;;;;5016043;28;20194;-95
2023/07/31 10:11:36;;;;;;;3.10;2.63;;;23.00;1.00;;;;;;5015535;28;20224;-95
2023/07/31 10:14:04;;;;;;;6.15;2.92;;;23.00;1.00;;;;;;5016869;28;20236;-94
2023/07/31 10:16:32;;;;;;;4.20;2.58;;;23.00;1.00;;;;;;5034293;28;20212;-94
2023/07/31 10:19:00;;;;;;;4.38;3.10;;;23.00;99.90;;;;;;4996300;28;20225;-94
2023/07/31 10:21:27;;;;;;;3.33;2.67;;;22.80;1.00;;;;;;4997768;28;20199;-95
2023/07/31 10:23:55;;;;;;;3.33;2.45;;;22.80;1.00;;;;;;5010853;28;20198;-95
2023/07/31 10:26:24;;;;;;;3.67;2.30;;;22.80;99.90;;;;;;5018809;28;20222;-95
2023/07/31 10:28:54;;;;;;;4.97;2.30;;;22.80;99.90;;;;;;5020070;28;20293;-94
2023/07/31 10:31:22;;;;;;;3.85;2.70;;;22.70;99.90;;;;;;5025512;28;20562;-95
2023/07/31 10:33:50;;;;;;;4.53;2.47;;;22.50;99.90;;;;;;5021392;28;20222;-95
2023/07/31 10:36:19;;;;;;;3.45;2.47;;;22.30;99.90;;;;;;5020172;28;20206;-95
2023/07/31 10:38:46;;;;;;;4.18;2.70;;;22.20;1.00;;;;;;5023359;28;20222;-95
2023/07/31 10:41:13;;;;;;;4.47;2.40;;;22.30;1.00;;;;;;5022080;28;20186;-95
2023/07/31 10:43:40;;;;;;;2.85;2.50;;;22.30;1.00;;;;;;5021131;28;20647;-96
2023/07/31 10:46:09;;;;;;;3.60;2.50;;;22.30;1.00;;;;;;5002923;28;20866;-96
2023/07/31 10:48:37;;;;;;;5.22;3.35;;;22.20;1.00;;;;;;5016935;28;20209;-95
2023/07/31 10:51:09;;;;;;;4.07;2.75;;;22.20;99.90;;;;;;5027864;28;20209;-96
2023/07/31 10:53:37;;;;;;;4.40;3.00;;;22.10;1.00;;;;;;5024650;28;20277;-96
2023/07/31 10:56:05;;;;;;;3.70;2.60;;;22.20;1.00;;;;;;5022541;28;20201;-96
2023/07/31 10:58:33;;;;;;;4.32;3.00;;;22.30;1.00;;;;;;5024613;28;20190;-94
2023/07/31 11:01:01;;;;;;;6.65;3.25;;;22.50;1.00;;;;;;5004493;28;20219;-95
2023/07/31 11:03:43;;;;;;;4.53;2.63;;;22.80;1.00;;;;;;5021919;28;20225;-95
2023/07/31 11:06:10;;;;;;;3.50;2.90;;;23.00;99.90;;;;;;5024641;28;20190;-96
2023/07/31 11:08:43;;;;;;;10.82;2.78;;;23.10;99.90;;;;;;5020736;28;20202;-95
2023/07/31 11:11:11;;;;;;;4.03;2.35;;;23.20;99.90;;;;;;5001830;28;20651;-96
2023/07/31 11:13:44;;;;;;;4.43;2.63;;;23.20;99.90;;;;;;5019528;28;20218;-96
2023/07/31 11:16:11;;;;;;;4.30;2.40;;;23.00;99.90;;;;;;5020057;28;20198;-95
2023/07/31 11:18:41;;;;;;;3.85;2.63;;;22.80;99.90;;;;;;5018550;28;20260;-95
2023/07/31 11:21:09;;;;;;;11.75;3.10;;;22.70;99.90;;;;;;5018568;28;20195;-95
2023/07/31 11:23:39;;;;;;;5.55;3.35;;;22.80;99.90;;;;;;5020307;28;20285;-95
2023/07/31 11:26:06;;;;;;;3.13;2.38;;;23.10;99.90;;;;;;5020902;28;20202;-96
2023/07/31 11:28:34;;;;;;;4.95;2.40;;;23.50;99.90;;;;;;5019153;28;20198;-95
2023/07/31 11:31:01;;;;;;;5.00;2.28;;;23.50;1.00;;;;;;5019754;28;20198;-95
2023/07/31 11:33:28;;;;;;;3.58;2.40;;;23.20;1.00;;;;;;5019927;28;20222;-94
2023/07/31 11:35:57;;;;;;;5.13;1.95;;;23.10;58.40;;;;;;5019022;28;20285;-95
2023/07/31 11:38:25;;;;;;;3.10;2.50;;;23.10;99.90;;;;;;5019380;28;20233;-95
2023/07/31 11:40:53;;;;;;;7.18;2.40;;;23.40;99.90;;;;;;5018309;28;20204;-95
2023/07/31 11:43:21;;;;;;;4.30;2.30;;;23.90;99.90;;;;;;5019192;28;20221;-95
2023/07/31 11:45:49;;;;;;;2.63;2.35;;;24.60;4.50;;;;;;4998856;28;20651;-95
2023/07/31 11:48:23;;;;;;;5.53;2.72;;;25.00;1.00;;;;;;5013787;28;20225;-95
2023/07/31 11:50:51;;;;;;;6.75;2.65;;;25.20;1.00;;;;;;5019100;28;20198;-93
2023/07/31 11:53:23;;;;;;;4.32;2.30;;;25.20;1.00;;;;;;5017992;28;20713;-93
2023/07/31 11:55:51;;;;;;;2.92;2.45;;;25.00;1.00;;;;;;4997607;28;20185;-94
2023/07/31 11:58:18;;;;;;;3.95;2.70;;;24.80;1.00;;;;;;5018316;28;20258;-95
2023/07/31 12:00:46;;;;;;;4.50;2.40;;;24.40;1.00;;;;;;5017266;28;20186;-94
2023/07/31 12:03:13;;;;;;;2.83;2.17;;;24.10;1.00;;;;;;5017946;28;20204;-95
2023/07/31 12:05:40;;;;;;;4.18;2.08;;;23.80;1.00;;;;;;5018492;28;20207;-95
2023/07/31 12:08:11;;;;;;;2.97;2.10;;;23.50;1.00;;;;;;5018311;28;20198;-95
2023/07/31 12:10:40;;;;;;;5.20;2.47;;;23.40;1.00;;;;;;5000434;28;20192;-96
2023/07/31 12:13:13;;;;;;;2.17;1.98;;;23.20;1.00;;;;;;5008070;28;20221;-95
2023/07/31 12:15:42;;;;;;;3.28;2.20;;;23.40;1.00;;;;;;5015574;28;20309;-94
2023/07/31 12:18:10;;;;;;;2.70;1.90;;;23.60;1.00;;;;;;5018361;28;20253;-95
2023/07/31 12:20:45;;;;;;;3.17;1.70;;;24.00;1.00;;;;;;5018548;28;20281;-95
2023/07/31 12:23:16;;;;;;;5.03;1.60;;;24.50;1.00;;;;;;5018281;28;20194;-95
2023/07/31 12:25:44;;;;;;;2.08;1.73;;;24.70;1.00;;;;;;5000880;28;20206;-95
2023/07/31 12:28:12;;;;;;;2.53;1.75;;;24.70;1.00;;;;;;5018651;28;20233;-95
2023/07/31 12:30:40;;;;;;;4.07;1.70;;;24.70;1.00;;;;;;5017846;28;20707;-95
2023/07/31 12:33:12;;;;;;;2.30;1.40;;;24.70;1.00;;;;;;5017899;28;20305;-95
2023/07/31 12:35:42;;;;;;;1.55;1.35;;;24.60;1.00;;;;;;5017486;28;20296;-95
2023/07/31 12:38:09;;;;;;;2.30;1.77;;;24.10;1.00;;;;;;5012762;28;20257;-95
2023/07/31 12:40:38;;;;;;;5.70;1.65;;;23.80;1.00;;;;;;5017281;28;20218;-95
2023/07/31 12:43:06;;;;;;;1.83;1.52;;;23.40;1.00;;;;;;5016796;28;20194;-96
2023/07/31 12:45:33;;;;;;;1.95;1.73;;;23.30;99.90;;;;;;5008182;28;20259;-95
2023/07/31 12:48:01;;;;;;;1.77;1.40;;;23.70;1.00;;;;;;5005724;28;20218;-94
2023/07/31 12:50:28;;;;;;;1.80;1.30;;;24.20;1.00;;;;;;5016929;28;20198;-95
2023/07/31 12:52:55;;;;;;;3.85;2.97;;;24.30;1.00;;;;;;5016839;28;20282;-95
2023/07/31 12:55:23;;;;;;;10.60;9.57;;;24.20;99.90;;;;;;5000699;28;20685;-95
2023/07/31 12:57:50;;;;;;;3.70;3.40;;;24.00;99.90;;;;;;5017106;28;20198;-95
2023/07/31 13:00:18;;;;;;;3.05;2.78;;;23.80;1.00;;;;;;5016540;28;20214;-95
2023/07/31 13:02:45;;;;;;;3.53;1.88;;;23.60;1.00;;;;;;5016518;28;20202;-95
2023/07/31 13:05:13;;;;;;;3.28;1.90;;;23.50;99.90;;;;;;5017453;28;20284;-95
2023/07/31 13:07:40;;;;;;;2.50;2.20;;;23.30;1.00;;;;;;5020428;28;20202;-95
2023/07/31 13:10:08;;;;;;;3.17;2.15;;;23.50;1.00;;;;;;5020683;28;20198;-96
2023/07/31 13:12:35;;;;;;;9.70;3.00;;;23.80;1.00;;;;;;5017980;28;20566;-96
2023/07/31 13:15:02;;;;;;;2.63;1.70;;;24.10;1.00;;;;;;5017297;28;20222;-94
2023/07/31 13:17:30;;;;;;;3.28;2.80;;;24.40;99.90;;;;;;5016314;28;20232;-94
2023/07/31 13:19:57;;;;;;;4.53;2.00;;;24.20;99.90;;;;;;5017057;28;20266;-94
2023/07/31 13:22:24;;;;;;;4.80;1.95;;;23.80;99.90;;;;;;5016838;28;20565;-94
2023/07/31 13:24:51;;;;;;;3.38;2.25;;;23.40;99.90;;;;;;5016673;28;20198;-95
2023/07/31 13:27:20;;;;;;;3.90;1.92;;;23.10;1.00;;;;;;5017831;28;20229;-95
2023/07/31 13:29:47;;;;;;;3.83;1.85;;;23.30;1.00;;;;;;5016310;28;20610;-95
2023/07/31 13:32:14;;;;;;;5.70;2.13;;;23.80;1.00;;;;;;5016227;28;20734;-96
2023/07/31 13:34:42;;;;;;;3.58;1.70;;;24.10;99.90;;;;;;5000142;28;20202;-94
2023/07/31 13:37:09;;;;;;;2.05;1.80;;;24.40;99.90;;;;;;5015959;28;20198;-94
2023/07/31 13:39:36;;;;;;;3.20;2.10;;;24.60;99.90;;;;;;5016022;28;20244;-95
2023/07/31 13:42:06;;;;;;;3.20;2.17;;;24.80;99.90;;;;;;5015660;28;20237;-94
2023/07/31 13:44:33;;;;;;;2.97;2.42;;;24.90;99.90;;;;;;5015849;28;20202;-94
2023/07/31 13:47:00;;;;;;;4.82;2.33;;;25.00;18.00;;;;;;5016279;28;20208;-95
2023/07/31 13:49:27;;;;;;;5.13;2.60;;;25.10;37.00;;;;;;5015999;28;20655;-95
2023/07/31 13:51:55;;;;;;;4.28;2.22;;;25.20;11.20;;;;;;4996965;28;20644;-96
2023/07/31 13:54:23;;;;;;;2.45;1.85;;;25.40;1.00;;;;;;5000195;28;20281;-95
2023/07/31 13:56:50;;;;;;;5.38;2.17;;;25.40;1.00;;;;;;4996025;28;20210;-95
2023/07/31 13:59:18;;;;;;;4.72;2.20;;;25.20;1.00;;;;;;4996988;28;20203;-94
2023/07/31 14:01:45;;;;;;;3.80;2.42;;;25.20;1.00;;;;;;5014412;28;20208;-95
2023/07/31 14:04:12;;;;;;;3.72;2.65;;;25.00;1.00;;;;;;5018128;28;20693;-93
2023/07/31 14:06:39;;;;;;;4.28;2.50;;;24.90;1.00;;;;;;5015755;28;20202;-95
2023/07/31 14:09:07;;;;;;;7.32;2.90;;;24.90;1.00;;;;;;5019984;28;20289;-95
2023/07/31 14:11:34;;;;;;;7.50;2.53;;;25.00;1.00;;;;;;5019652;28;20206;-95
2023/07/31 14:14:02;;;;;;;5.82;2.42;;;25.00;1.00;;;;;;5020021;28;20218;-95
2023/07/31 14:16:29;;;;;;;5.50;2.55;;;24.80;1.00;;;;;;5019474;28;20725;-93
2023/07/31 14:18:58;;;;;;;3.85;2.45;;;24.40;1.00;;;;;;5019034;28;20230;-94
2023/07/31 14:21:25;;;;;;;9.35;2.80;;;24.10;1.00;;;;;;5019642;28;20245;-93
2023/07/31 14:23:52;;;;;;;5.57;2.60;;;23.80;1.00;;;;;;5015422;28;20576;-94
2023/07/31 14:26:21;;;;;;;4.00;2.40;;;23.70;1.00;;;;;;5002809;28;20972;-94
2023/07/31 14:28:47;;;;;;;3.58;2.60;;;23.80;1.00;;;;;;5019792;28;20206;-94
2023/07/31 14:31:14;;;;;;;3.53;2.45;;;24.10;1.00;;;;;;5019796;28;20204;-95
2023/07/31 14:33:41;;;;;;;4.28;2.80;;;24.40;1.00;;;;;;5019189;28;20217;-94
2023/07/31 14:36:08;;;;;;;3.45;2.58;;;24.60;1.00;;;;;;5019098;28;20230;-94